createdAt,value
2018-09-03T00:00:03.975Z,24.20
2018-09-03T00:02:32.352Z,24.30
2018-09-03T00:05:00.710Z,24.30
2018-09-03T00:07:29.152Z,24.20
2018-09-03T00:09:57.516Z,24.20
2018-09-03T00:12:25.914Z,24.30
2018-09-03T00:14:54.368Z,24.20
2018-09-03T00:17:22.743Z,24.20
2018-09-03T00:19:51.143Z,24.20
2018-09-03T00:22:19.541Z,24.20
2018-09-03T00:24:48.086Z,24.20
2018-09-03T00:27:16.498Z,24.20
2018-09-03T00:29:44.988Z,24.20
2018-09-03T00:32:18.774Z,24.20
2018-09-03T00:34:52.401Z,24.20
2018-09-03T00:37:26.246Z,24.20
2018-09-03T00:40:00.006Z,24.20
2018-09-03T00:42:33.741Z,24.20
2018-09-03T00:45:07.482Z,24.20
2018-09-03T00:47:35.881Z,24.30
2018-09-03T00:50:04.353Z,24.20
2018-09-03T00:52:32.880Z,24.20
2018-09-03T00:55:01.343Z,24.20
2018-09-03T00:57:29.888Z,24.20
2018-09-03T00:59:58.240Z,24.20
2018-09-03T01:02:26.619Z,24.20
2018-09-03T01:04:54.917Z,24.20
2018-09-03T01:07:23.491Z,24.20
2018-09-03T01:09:51.880Z,24.20
2018-09-03T01:12:20.367Z,24.20
2018-09-03T01:14:48.760Z,24.20
2018-09-03T01:17:17.106Z,24.20
2018-09-03T01:19:45.471Z,24.20
2018-09-03T01:22:13.885Z,24.20
2018-09-03T01:24:42.274Z,24.20
2018-09-03T01:27:10.658Z,24.20
2018-09-03T01:29:39.478Z,24.20
2018-09-03T01:32:07.782Z,24.20
2018-09-03T01:34:36.148Z,24.20
2018-09-03T01:37:04.481Z,24.20
2018-09-03T01:39:32.866Z,24.20
2018-09-03T01:42:01.356Z,24.20
2018-09-03T01:44:29.794Z,24.20
2018-09-03T01:46:58.202Z,24.20
2018-09-03T01:49:26.540Z,24.20
2018-09-03T01:51:54.893Z,24.20
2018-09-03T01:54:23.240Z,24.20
2018-09-03T01:56:51.714Z,24.20
2018-09-03T01:59:20.204Z,24.20
2018-09-03T02:01:48.572Z,24.20
2018-09-03T02:04:17.066Z,24.20
2018-09-03T02:06:45.652Z,24.20
2018-09-03T02:09:14.158Z,24.20
2018-09-03T02:11:42.886Z,24.20
2018-09-03T02:14:11.274Z,24.20
2018-09-03T02:16:39.820Z,24.20
2018-09-03T02:19:08.922Z,24.20
2018-09-03T02:21:37.693Z,24.20
2018-09-03T02:24:06.192Z,24.20
2018-09-03T02:26:34.688Z,24.20
2018-09-03T02:29:03.058Z,24.20
2018-09-03T02:31:31.442Z,24.20
2018-09-03T02:33:59.898Z,24.20
2018-09-03T02:36:28.358Z,24.20
2018-09-03T02:38:56.728Z,24.20
2018-09-03T02:41:25.329Z,24.20
2018-09-03T02:43:53.686Z,24.20
2018-09-03T02:46:22.189Z,24.20
2018-09-03T02:48:50.612Z,24.20
2018-09-03T02:51:19.031Z,24.20
2018-09-03T02:53:47.537Z,24.20
2018-09-03T02:56:15.874Z,24.20
2018-09-03T02:58:44.357Z,24.20
2018-09-03T03:01:12.666Z,24.20
2018-09-03T03:03:41.146Z,24.20
2018-09-03T03:06:09.478Z,24.20
2018-09-03T03:08:37.882Z,24.20
2018-09-03T03:11:06.686Z,24.20
2018-09-03T03:13:35.122Z,24.20
2018-09-03T03:16:03.460Z,24.20
2018-09-03T03:18:31.824Z,24.20
2018-09-03T03:21:00.284Z,24.20
2018-09-03T03:23:28.832Z,24.20
2018-09-03T03:25:57.270Z,24.20
2018-09-03T03:28:25.836Z,24.20
2018-09-03T03:30:54.279Z,24.20
2018-09-03T03:33:22.632Z,24.20
2018-09-03T03:35:51.055Z,24.20
2018-09-03T03:38:19.431Z,24.20
2018-09-03T03:40:47.858Z,24.20
2018-09-03T03:43:16.548Z,24.20
2018-09-03T03:45:45.016Z,24.20
2018-09-03T03:48:13.476Z,24.20
2018-09-03T03:50:42.033Z,24.20
2018-09-03T03:53:10.400Z,24.20
2018-09-03T03:55:38.773Z,24.20
2018-09-03T03:58:08.090Z,24.20
2018-09-03T04:00:36.527Z,24.20
2018-09-03T04:03:05.029Z,24.20
2018-09-03T04:05:33.459Z,24.20
2018-09-03T04:08:01.846Z,24.20
2018-09-03T04:10:30.357Z,24.20
2018-09-03T04:13:03.031Z,24.20
2018-09-03T04:15:31.425Z,24.20
2018-09-03T04:18:00.095Z,24.20
2018-09-03T04:20:28.476Z,24.20
2018-09-03T04:22:56.900Z,24.20
2018-09-03T04:25:25.356Z,24.20
2018-09-03T04:27:54.449Z,24.20
2018-09-03T04:30:22.896Z,24.20
2018-09-03T04:32:51.335Z,24.20
2018-09-03T04:35:19.659Z,24.20
2018-09-03T04:37:47.989Z,24.20
2018-09-03T04:40:16.383Z,24.20
2018-09-03T04:42:44.762Z,24.10
2018-09-03T04:45:13.217Z,24.10
2018-09-03T04:47:41.569Z,24.10
2018-09-03T04:50:09.993Z,24.10
2018-09-03T04:52:38.477Z,24.10
2018-09-03T04:55:06.988Z,24.10
2018-09-03T04:57:35.326Z,24.10
2018-09-03T05:00:04.194Z,24.10
2018-09-03T05:02:32.670Z,24.10
2018-09-03T05:05:01.207Z,24.10
2018-09-03T05:07:29.530Z,24.10
2018-09-03T05:09:57.954Z,24.20
2018-09-03T05:12:26.300Z,24.20
2018-09-03T05:14:54.725Z,24.10
2018-09-03T05:17:23.110Z,24.20
2018-09-03T05:19:51.537Z,24.10
2018-09-03T05:22:19.973Z,24.20
2018-09-03T05:24:48.490Z,24.20
2018-09-03T05:27:17.083Z,24.10
2018-09-03T05:29:45.482Z,24.10
2018-09-03T05:32:14.007Z,24.10
2018-09-03T05:34:42.384Z,24.20
2018-09-03T05:37:10.779Z,24.20
2018-09-03T05:39:39.133Z,24.20
2018-09-03T05:42:07.640Z,24.30
2018-09-03T05:44:36.059Z,24.30
2018-09-03T05:47:05.279Z,24.30
2018-09-03T05:49:33.697Z,24.30
2018-09-03T05:52:02.079Z,24.40
2018-09-03T05:54:30.486Z,24.40
2018-09-03T05:56:59.103Z,24.40
2018-09-03T05:59:27.750Z,24.40
2018-09-03T06:01:59.340Z,24.30
2018-09-03T06:04:27.779Z,24.30
2018-09-03T06:06:56.221Z,24.30
2018-09-03T06:09:24.628Z,24.30
2018-09-03T06:11:53.029Z,24.30
2018-09-03T06:14:21.399Z,24.40
2018-09-03T06:16:49.838Z,24.30
2018-09-03T06:19:18.257Z,24.30
2018-09-03T06:21:46.805Z,24.40
2018-09-03T06:24:15.225Z,24.40
2018-09-03T06:26:43.624Z,24.40
2018-09-03T06:29:12.007Z,24.40
2018-09-03T06:31:40.401Z,24.40
2018-09-03T06:34:08.777Z,24.40
2018-09-03T06:36:37.301Z,24.40
2018-09-03T06:39:07.455Z,24.40
2018-09-03T06:41:36.063Z,24.40
2018-09-03T06:44:04.651Z,24.40
2018-09-03T06:46:33.056Z,24.40
2018-09-03T06:49:02.389Z,24.40
2018-09-03T06:51:30.875Z,24.40
2018-09-03T06:53:59.270Z,24.40
2018-09-03T06:56:27.629Z,24.40
2018-09-03T06:58:56.049Z,24.40
2018-09-03T07:01:24.473Z,24.40
2018-09-03T07:03:52.872Z,24.40
2018-09-03T07:06:21.309Z,24.40
2018-09-03T07:08:49.867Z,24.40
2018-09-03T07:11:18.279Z,24.40
2018-09-03T07:13:46.638Z,24.40
2018-09-03T07:16:15.021Z,24.40
2018-09-03T07:18:43.566Z,24.40
2018-09-03T07:21:12.153Z,24.40
2018-09-03T07:23:40.537Z,24.40
2018-09-03T07:26:08.956Z,24.40
2018-09-03T07:28:37.441Z,24.40
2018-09-03T07:31:05.822Z,24.40
2018-09-03T07:33:34.202Z,24.40
2018-09-03T07:36:02.534Z,24.40
2018-09-03T07:38:30.958Z,24.40
2018-09-03T07:40:59.357Z,24.40
2018-09-03T07:43:27.767Z,24.40
2018-09-03T07:45:56.176Z,24.40
2018-09-03T07:48:24.604Z,24.40
2018-09-03T07:50:52.985Z,24.40
2018-09-03T07:53:21.313Z,24.40
2018-09-03T07:55:49.676Z,24.40
2018-09-03T07:58:18.090Z,24.40
2018-09-03T08:00:46.579Z,24.40
2018-09-03T08:03:15.018Z,24.40
2018-09-03T08:05:43.417Z,24.40
2018-09-03T08:08:11.767Z,24.40
2018-09-03T08:10:40.248Z,24.40
2018-09-03T08:13:08.680Z,24.40
2018-09-03T08:15:37.118Z,24.40
2018-09-03T08:18:05.464Z,24.40
2018-09-03T08:20:33.992Z,24.40
2018-09-03T08:23:02.360Z,24.30
2018-09-03T08:25:30.883Z,24.40
2018-09-03T08:27:59.362Z,24.70
2018-09-03T08:30:27.992Z,24.80
2018-09-03T08:32:56.391Z,24.90
2018-09-03T08:35:25.004Z,24.90
2018-09-03T08:37:53.470Z,24.80
2018-09-03T08:40:21.970Z,24.80
2018-09-03T08:42:50.458Z,24.70
2018-09-03T08:45:18.838Z,24.70
2018-09-03T08:47:47.212Z,24.70
2018-09-03T08:50:15.680Z,24.60
2018-09-03T08:52:44.089Z,24.60
2018-09-03T08:55:12.432Z,24.60
2018-09-03T08:57:40.904Z,24.60
2018-09-03T09:00:09.278Z,24.60
2018-09-03T09:02:37.751Z,24.50
2018-09-03T09:05:06.480Z,24.50
2018-09-03T09:07:34.854Z,24.50
2018-09-03T09:10:03.368Z,24.50
2018-09-03T09:12:31.733Z,24.50
2018-09-03T09:15:00.143Z,24.50
2018-09-03T09:17:28.723Z,24.50
2018-09-03T09:19:57.106Z,24.50
2018-09-03T09:22:25.630Z,24.50
2018-09-03T09:24:53.984Z,24.50
2018-09-03T09:27:22.339Z,24.50
2018-09-03T09:29:50.734Z,24.50
2018-09-03T09:32:19.271Z,24.40
2018-09-03T09:34:47.880Z,24.40
2018-09-03T09:37:16.439Z,24.50
2018-09-03T09:39:45.318Z,24.50
2018-09-03T09:42:13.841Z,24.50
2018-09-03T09:44:42.234Z,24.50
2018-09-03T09:47:10.578Z,24.50
2018-09-03T09:49:39.040Z,24.50
2018-09-03T09:52:07.500Z,24.40
2018-09-03T09:54:35.970Z,24.50
2018-09-03T09:57:04.712Z,24.40
2018-09-03T09:59:33.161Z,24.50
2018-09-03T10:02:01.612Z,24.50
2018-09-03T10:04:29.952Z,24.50
2018-09-03T10:06:58.454Z,24.50
2018-09-03T10:09:26.944Z,24.50
2018-09-03T10:11:55.514Z,24.50
2018-09-03T10:14:23.944Z,24.50
2018-09-03T10:16:52.288Z,24.50
2018-09-03T10:19:20.708Z,24.50
2018-09-03T10:21:49.117Z,24.50
2018-09-03T10:24:17.654Z,24.50
2018-09-03T10:26:46.103Z,24.50
2018-09-03T10:29:14.530Z,24.50
2018-09-03T10:31:42.926Z,24.50
2018-09-03T10:34:11.326Z,24.50
2018-09-03T10:36:39.808Z,24.50
2018-09-03T10:39:08.672Z,24.50
2018-09-03T10:41:37.331Z,24.50
2018-09-03T10:44:06.147Z,24.50
2018-09-03T10:46:34.537Z,24.50
2018-09-03T10:49:02.930Z,24.50
2018-09-03T10:51:31.319Z,24.50
2018-09-03T10:53:59.688Z,24.50
2018-09-03T10:56:28.193Z,24.50
2018-09-03T10:58:56.529Z,24.50
2018-09-03T11:01:25.096Z,24.50
2018-09-03T11:03:53.567Z,24.50
2018-09-03T11:06:21.994Z,24.50
2018-09-03T11:08:50.487Z,24.50
2018-09-03T11:11:18.911Z,24.50
2018-09-03T11:13:47.306Z,24.50
2018-09-03T11:16:15.778Z,24.50
2018-09-03T11:18:44.286Z,24.50
2018-09-03T11:21:12.762Z,24.50
2018-09-03T11:23:41.216Z,24.50
2018-09-03T11:26:09.626Z,24.50
2018-09-03T11:28:38.105Z,24.50
2018-09-03T11:31:06.705Z,24.50
2018-09-03T11:33:35.183Z,24.50
2018-09-03T11:36:03.625Z,24.50
2018-09-03T11:38:31.989Z,24.50
2018-09-03T11:41:00.409Z,24.50
2018-09-03T11:43:28.729Z,24.50
2018-09-03T11:45:57.114Z,24.50
2018-09-03T11:48:25.529Z,24.50
2018-09-03T11:50:53.941Z,24.50
2018-09-03T11:53:22.438Z,24.50
2018-09-03T11:55:50.844Z,24.50
2018-09-03T11:58:19.290Z,24.50
2018-09-03T12:00:47.724Z,24.50
2018-09-03T12:03:16.115Z,24.50
2018-09-03T12:05:44.470Z,24.50
2018-09-03T12:08:13.080Z,24.50
2018-09-03T12:10:41.582Z,24.50
2018-09-03T12:13:10.073Z,24.50
2018-09-03T12:15:43.895Z,24.50
2018-09-03T12:18:12.233Z,24.50
2018-09-03T12:20:40.681Z,24.50
2018-09-03T12:23:09.264Z,24.50
2018-09-03T12:25:37.771Z,24.50
2018-09-03T12:28:06.141Z,24.50
2018-09-03T12:30:34.606Z,24.50
2018-09-03T12:33:02.981Z,24.50
2018-09-03T12:35:31.357Z,24.50
2018-09-03T12:37:59.720Z,24.50
2018-09-03T12:40:28.088Z,24.50
2018-09-03T12:42:56.667Z,24.50
2018-09-03T12:45:29.237Z,24.50
2018-09-03T12:47:58.004Z,24.50
2018-09-03T12:50:26.438Z,24.50
2018-09-03T12:52:54.873Z,24.50
2018-09-03T12:55:23.274Z,24.50
2018-09-03T12:57:51.705Z,24.50
2018-09-03T13:00:20.193Z,24.50
2018-09-03T13:02:51.454Z,24.50
2018-09-03T13:05:20.539Z,24.50
2018-09-03T13:07:49.320Z,24.50
2018-09-03T13:10:17.797Z,24.50
2018-09-03T13:12:46.606Z,24.50
2018-09-03T13:15:14.961Z,24.50
2018-09-03T13:17:43.540Z,24.50
2018-09-03T13:20:12.329Z,24.50
2018-09-03T13:22:40.681Z,24.50
2018-09-03T13:25:09.227Z,24.50
2018-09-03T13:27:37.637Z,24.50
2018-09-03T13:30:07.419Z,24.50
2018-09-03T13:32:35.903Z,24.50
2018-09-03T13:35:04.259Z,24.50
2018-09-03T13:37:32.925Z,24.60
2018-09-03T13:40:01.183Z,24.50
2018-09-03T13:42:29.844Z,24.50
2018-09-03T13:44:58.129Z,24.50
2018-09-03T13:47:26.849Z,24.50
2018-09-03T13:49:55.315Z,24.50
2018-09-03T13:52:23.849Z,24.50
2018-09-03T13:54:52.407Z,24.50
2018-09-03T13:57:20.737Z,24.50
2018-09-03T13:59:49.119Z,24.50
2018-09-03T14:02:17.555Z,24.50
2018-09-03T14:04:46.001Z,24.50
2018-09-03T14:07:14.375Z,24.50
2018-09-03T14:09:42.900Z,24.50
2018-09-03T14:12:11.313Z,24.50
2018-09-03T14:14:39.781Z,24.50
2018-09-03T14:17:08.197Z,24.50
2018-09-03T14:19:36.636Z,24.50
2018-09-03T14:22:05.116Z,24.50
2018-09-03T14:24:33.583Z,24.50
2018-09-03T14:27:02.093Z,24.50
2018-09-03T14:29:30.481Z,24.50
2018-09-03T14:31:58.835Z,24.50
2018-09-03T14:34:27.256Z,24.50
2018-09-03T14:36:55.609Z,24.50
2018-09-03T14:39:24.034Z,24.50
2018-09-03T14:41:52.485Z,24.50
2018-09-03T14:44:21.084Z,24.50
2018-09-03T14:46:49.525Z,24.50
2018-09-03T14:49:17.910Z,24.50
2018-09-03T14:51:46.250Z,24.50
2018-09-03T14:54:14.627Z,24.50
2018-09-03T14:56:43.064Z,24.50
2018-09-03T14:59:11.457Z,24.50
2018-09-03T15:01:39.995Z,24.50
2018-09-03T15:04:08.595Z,24.50
2018-09-03T15:06:37.060Z,24.50
2018-09-03T15:09:07.748Z,24.50
2018-09-03T15:11:36.139Z,24.50
2018-09-03T15:14:04.479Z,24.50
2018-09-03T15:16:33.705Z,24.50
2018-09-03T15:19:04.425Z,24.50
2018-09-03T15:21:33.736Z,24.50
2018-09-03T15:24:02.630Z,24.50
2018-09-03T15:26:31.125Z,24.50
2018-09-03T15:28:59.608Z,24.50
2018-09-03T15:31:28.018Z,24.50
2018-09-03T15:33:56.435Z,24.50
2018-09-03T15:36:25.044Z,24.50
2018-09-03T15:38:53.395Z,24.50
2018-09-03T15:41:21.870Z,24.50
2018-09-03T15:43:50.208Z,24.50
2018-09-03T15:46:18.757Z,24.50
2018-09-03T15:48:47.245Z,24.50
2018-09-03T15:51:15.651Z,24.50
2018-09-03T15:53:44.332Z,24.60
2018-09-03T15:56:12.836Z,24.60
2018-09-03T15:58:41.316Z,24.70
2018-09-03T16:01:09.676Z,24.90
2018-09-03T16:03:38.116Z,24.80
2018-09-03T16:06:06.592Z,24.80
2018-09-03T16:08:34.952Z,24.70
2018-09-03T16:11:03.360Z,24.70
2018-09-03T16:13:31.761Z,24.70
2018-09-03T16:16:00.200Z,24.60
2018-09-03T16:18:28.633Z,24.60
2018-09-03T16:20:57.098Z,24.60
2018-09-03T16:23:25.481Z,24.60
2018-09-03T16:25:53.924Z,24.60
2018-09-03T16:28:22.346Z,24.60
2018-09-03T16:30:50.869Z,24.60
2018-09-03T16:33:19.378Z,24.60
2018-09-03T16:35:47.786Z,24.60
2018-09-03T16:38:16.290Z,24.60
2018-09-03T16:40:44.928Z,24.60
2018-09-03T16:43:13.544Z,24.60
2018-09-03T16:45:41.941Z,24.60
2018-09-03T16:48:10.308Z,24.60
2018-09-03T16:50:38.796Z,24.50
2018-09-03T16:53:07.160Z,24.50
2018-09-03T16:55:35.556Z,24.50
2018-09-03T16:58:06.291Z,24.50
2018-09-03T17:00:34.780Z,24.40
2018-09-03T17:03:03.284Z,24.40
2018-09-03T17:05:33.450Z,24.40
2018-09-03T17:08:01.980Z,24.40
2018-09-03T17:10:30.296Z,24.30
2018-09-03T17:12:58.698Z,24.30
2018-09-03T17:15:27.117Z,24.30
2018-09-03T17:17:55.623Z,24.30
2018-09-03T17:20:24.070Z,24.30
2018-09-03T17:22:52.944Z,24.30
2018-09-03T17:25:21.530Z,24.30
2018-09-03T17:27:49.917Z,24.30
2018-09-03T17:30:19.272Z,24.20
2018-09-03T17:32:47.712Z,24.30
2018-09-03T17:35:16.156Z,24.30
2018-09-03T17:37:44.504Z,24.20
2018-09-03T17:40:12.873Z,24.20
2018-09-03T17:42:41.367Z,24.20
2018-09-03T17:45:09.963Z,24.10
2018-09-03T17:47:39.331Z,24.10
2018-09-03T17:50:07.696Z,24.10
2018-09-03T17:52:36.093Z,24.10
2018-09-03T17:55:04.548Z,24.00
2018-09-03T17:57:33.051Z,23.90
2018-09-03T18:00:01.519Z,23.90
2018-09-03T18:02:30.004Z,23.80
2018-09-03T18:04:58.453Z,23.80
2018-09-03T18:07:26.944Z,23.80
2018-09-03T18:09:55.415Z,23.80
2018-09-03T18:12:23.756Z,23.80
2018-09-03T18:14:52.446Z,23.90
2018-09-03T18:17:20.827Z,24.00
2018-09-03T18:19:49.494Z,24.00
2018-09-03T18:22:18.084Z,24.10
2018-09-03T18:24:47.469Z,24.10
2018-09-03T18:27:15.994Z,24.10
2018-09-03T18:29:44.407Z,24.20
2018-09-03T18:32:12.804Z,24.20
2018-09-03T18:34:41.302Z,24.20
2018-09-03T18:37:09.884Z,24.20
2018-09-03T18:39:38.468Z,24.20
2018-09-03T18:42:06.808Z,24.30
2018-09-03T18:44:35.258Z,24.30
2018-09-03T18:47:03.639Z,24.30
2018-09-03T18:49:32.189Z,24.30
2018-09-03T18:52:00.555Z,24.30
2018-09-03T18:54:29.145Z,24.30
2018-09-03T18:56:57.582Z,24.30
2018-09-03T18:59:26.046Z,24.30
2018-09-03T19:01:54.718Z,24.40
2018-09-03T19:04:23.113Z,24.40
2018-09-03T19:06:51.498Z,24.40
2018-09-03T19:09:19.995Z,24.40
2018-09-03T19:11:48.462Z,24.40
2018-09-03T19:14:16.886Z,24.40
2018-09-03T19:16:45.303Z,24.40
2018-09-03T19:19:13.812Z,24.40
2018-09-03T19:21:42.288Z,24.40
2018-09-03T19:24:10.796Z,24.40
2018-09-03T19:26:39.213Z,24.40
2018-09-03T19:29:07.602Z,24.40
2018-09-03T19:31:36.985Z,24.40
2018-09-03T19:34:05.433Z,24.40
2018-09-03T19:36:33.842Z,24.40
2018-09-03T19:39:02.423Z,24.50
2018-09-03T19:41:30.910Z,24.50
2018-09-03T19:43:59.295Z,24.50
2018-09-03T19:46:27.793Z,24.50
2018-09-03T19:48:56.214Z,24.60
2018-09-03T19:51:24.999Z,24.60
2018-09-03T19:53:53.374Z,24.60
2018-09-03T19:56:21.808Z,24.60
2018-09-03T19:58:50.241Z,24.60
2018-09-03T20:01:19.089Z,24.60
2018-09-03T20:03:47.771Z,24.60
2018-09-03T20:06:16.258Z,24.60
2018-09-03T20:08:45.782Z,24.60
2018-09-03T20:11:14.217Z,24.60
2018-09-03T20:13:42.643Z,24.60
2018-09-03T20:16:11.098Z,24.60
2018-09-03T20:18:40.388Z,24.60
2018-09-03T20:21:09.010Z,24.60
2018-09-03T20:23:37.591Z,24.60
2018-09-03T20:26:05.952Z,24.60
2018-09-03T20:28:34.424Z,24.60
2018-09-03T20:31:03.011Z,24.60
2018-09-03T20:33:31.450Z,24.60
2018-09-03T20:36:00.247Z,24.60
2018-09-03T20:38:28.798Z,24.60
2018-09-03T20:40:57.252Z,24.60
2018-09-03T20:43:25.892Z,24.60
2018-09-03T20:45:54.962Z,24.60
2018-09-03T20:48:23.484Z,24.60
2018-09-03T20:50:51.924Z,24.60
2018-09-03T20:53:20.339Z,24.60
2018-09-03T20:55:48.803Z,24.60
2018-09-03T20:58:17.227Z,24.60
2018-09-03T21:00:45.678Z,24.50
2018-09-03T21:03:14.050Z,24.60
2018-09-03T21:05:42.451Z,24.60
2018-09-03T21:08:10.859Z,24.50
2018-09-03T21:10:39.248Z,24.50
2018-09-03T21:13:07.831Z,24.50
2018-09-03T21:15:36.204Z,24.50
2018-09-03T21:18:04.591Z,24.50
2018-09-03T21:20:32.947Z,24.50
2018-09-03T21:23:01.376Z,24.50
2018-09-03T21:25:30.236Z,24.50
2018-09-03T21:27:58.756Z,24.50
2018-09-03T21:30:27.255Z,24.50
2018-09-03T21:32:55.633Z,24.50
2018-09-03T21:35:23.989Z,24.50
2018-09-03T21:37:52.450Z,24.50
2018-09-03T21:40:20.927Z,24.50
2018-09-03T21:42:49.298Z,24.50
2018-09-03T21:45:17.708Z,24.50
2018-09-03T21:47:46.064Z,24.50
2018-09-03T21:50:14.419Z,24.50
2018-09-03T21:52:42.821Z,24.50
2018-09-03T21:55:11.188Z,24.50
2018-09-03T21:57:39.600Z,24.50
2018-09-03T22:00:08.783Z,24.50
2018-09-03T22:02:37.256Z,24.70
2018-09-03T22:05:06.008Z,24.50
2018-09-03T22:07:34.855Z,24.50
2018-09-03T22:10:03.451Z,24.50
2018-09-03T22:12:32.033Z,24.50
2018-09-03T22:15:00.617Z,24.50
2018-09-03T22:17:29.673Z,24.50
2018-09-03T22:19:58.016Z,24.50
2018-09-03T22:22:26.531Z,24.50
2018-09-03T22:24:55.221Z,24.50
2018-09-03T22:27:23.648Z,24.50
2018-09-03T22:29:52.077Z,24.50
2018-09-03T22:32:20.461Z,24.50
2018-09-03T22:34:48.907Z,24.50
2018-09-03T22:37:17.279Z,24.50
2018-09-03T22:39:45.638Z,24.50
2018-09-03T22:42:14.025Z,24.50
2018-09-03T22:44:42.465Z,24.50
2018-09-03T22:47:10.999Z,24.50
2018-09-03T22:49:39.406Z,24.50
2018-09-03T22:52:07.889Z,24.50
2018-09-03T22:54:36.584Z,24.50
2018-09-03T22:57:05.106Z,24.50
2018-09-03T22:59:33.501Z,24.50
2018-09-03T23:02:02.313Z,24.50
2018-09-03T23:04:30.681Z,24.50
2018-09-03T23:06:59.018Z,24.50
2018-09-03T23:09:27.390Z,24.50
2018-09-03T23:11:55.741Z,24.50
2018-09-03T23:14:24.135Z,24.50
2018-09-03T23:16:52.531Z,24.50
2018-09-03T23:19:20.955Z,24.50
2018-09-03T23:21:49.353Z,24.50
2018-09-03T23:24:17.929Z,24.50
2018-09-03T23:26:46.466Z,24.50
2018-09-03T23:29:14.872Z,24.50
2018-09-03T23:31:43.379Z,24.50
2018-09-03T23:34:11.816Z,24.50
2018-09-03T23:36:40.365Z,24.50
2018-09-03T23:39:08.722Z,24.50
2018-09-03T23:41:37.082Z,24.50
2018-09-03T23:44:05.579Z,24.50
2018-09-03T23:46:33.999Z,24.50
2018-09-03T23:49:02.314Z,24.50
2018-09-03T23:51:30.721Z,24.50
2018-09-03T23:53:59.047Z,24.50
2018-09-03T23:56:27.461Z,24.50
2018-09-03T23:58:55.943Z,24.50
